createdAt,value
2018-02-09T00:00:48.070Z,98713
2018-02-09T00:03:15.683Z,98725
2018-02-09T00:05:44.015Z,98719
2018-02-09T00:08:11.575Z,98722
2018-02-09T00:10:39.919Z,98717
2018-02-09T00:13:07.486Z,98719
2018-02-09T00:15:35.119Z,98716
2018-02-09T00:18:03.496Z,98712
2018-02-09T00:20:31.163Z,98717
2018-02-09T00:22:59.532Z,98701
2018-02-09T00:25:27.098Z,98709
2018-02-09T00:27:55.472Z,98708
2018-02-09T00:30:23.815Z,98705
2018-02-09T00:32:51.378Z,98706
2018-02-09T00:35:18.976Z,98706
2018-02-09T00:37:46.537Z,98708
2018-02-09T00:40:14.204Z,98709
2018-02-09T00:42:42.583Z,98717
2018-02-09T00:45:11.781Z,98713
2018-02-09T00:47:40.390Z,98714
2018-02-09T00:50:08.036Z,98712
2018-02-09T00:52:36.403Z,98706
2018-02-09T00:55:03.967Z,98711
2018-02-09T00:57:31.637Z,98713
2018-02-09T01:00:00.038Z,98715
2018-02-09T01:02:27.618Z,98712
2018-02-09T01:04:55.233Z,98716
2018-02-09T01:07:22.794Z,98716
2018-02-09T01:09:51.178Z,98710
2018-02-09T01:12:19.502Z,98721
2018-02-09T01:14:47.116Z,98710
2018-02-09T01:17:15.443Z,98715
2018-02-09T01:19:43.046Z,98719
2018-02-09T01:22:11.830Z,98716
2018-02-09T01:24:39.929Z,98713
2018-02-09T01:27:08.258Z,98714
2018-02-09T01:29:35.816Z,98702
2018-02-09T01:32:03.385Z,98710
2018-02-09T01:34:30.942Z,98721
2018-02-09T01:36:58.526Z,98694
2018-02-09T01:39:26.200Z,98690
2018-02-09T01:41:54.529Z,98691
2018-02-09T01:44:22.098Z,98702
2018-02-09T01:46:49.701Z,98697
2018-02-09T01:49:18.080Z,98698
2018-02-09T01:51:46.408Z,98687
2018-02-09T01:54:14.017Z,98691
2018-02-09T01:56:41.963Z,98682
2018-02-09T01:59:10.373Z,98688
2018-02-09T02:01:38.029Z,98683
2018-02-09T02:04:06.421Z,98681
2018-02-09T02:06:34.768Z,98680
2018-02-09T02:09:02.340Z,98683
2018-02-09T02:11:29.900Z,98678
2018-02-09T02:13:57.475Z,98675
2018-02-09T02:16:25.829Z,98675
2018-02-09T02:18:53.387Z,98670
2018-02-09T02:21:20.951Z,98676
2018-02-09T02:23:48.511Z,98660
2018-02-09T02:26:16.080Z,98663
2018-02-09T02:28:43.757Z,98661
2018-02-09T02:31:12.089Z,98652
2018-02-09T02:33:40.683Z,98659
2018-02-09T02:36:09.033Z,98655
2018-02-09T02:38:36.664Z,98652
2018-02-09T02:41:04.992Z,98643
2018-02-09T02:43:32.596Z,98656
2018-02-09T02:46:00.984Z,98656
2018-02-09T02:48:29.316Z,98655
2018-02-09T02:50:56.890Z,98654
2018-02-09T02:53:24.447Z,98653
2018-02-09T02:55:52.042Z,98654
2018-02-09T02:58:20.412Z,98639
2018-02-09T03:00:47.992Z,98641
2018-02-09T03:03:16.324Z,98646
2018-02-09T03:05:43.919Z,98654
2018-02-09T03:08:12.298Z,98644
2018-02-09T03:10:41.975Z,98642
2018-02-09T03:13:09.968Z,98636
2018-02-09T03:15:37.539Z,98639
2018-02-09T03:18:05.920Z,98639
2018-02-09T03:20:33.583Z,98633
2018-02-09T03:23:01.965Z,98633
2018-02-09T03:25:30.337Z,98636
2018-02-09T03:27:57.902Z,98632
2018-02-09T03:30:26.282Z,98627
2018-02-09T03:32:54.610Z,98628
2018-02-09T03:35:22.169Z,98632
2018-02-09T03:37:49.748Z,98630
2018-02-09T03:40:17.336Z,98633
2018-02-09T03:42:44.999Z,98630
2018-02-09T03:45:13.388Z,98627
2018-02-09T03:47:41.727Z,98628
2018-02-09T03:50:09.848Z,98619
2018-02-09T03:52:38.181Z,98614
2018-02-09T03:55:05.754Z,98626
2018-02-09T03:57:33.335Z,98618
2018-02-09T04:00:01.711Z,98616
2018-02-09T04:02:29.271Z,98625
2018-02-09T04:04:56.853Z,98613
2018-02-09T04:07:24.431Z,98613
2018-02-09T04:09:52.004Z,98618
2018-02-09T04:12:19.617Z,98614
2018-02-09T04:14:47.951Z,98613
2018-02-09T04:17:15.527Z,98602
2018-02-09T04:19:43.088Z,98614
2018-02-09T04:22:11.619Z,98610
2018-02-09T04:24:39.996Z,98609
2018-02-09T04:27:08.352Z,98610
2018-02-09T04:29:36.748Z,98609
2018-02-09T04:32:05.094Z,98604
2018-02-09T04:34:32.666Z,98606
2018-02-09T04:37:00.238Z,98604
2018-02-09T04:39:28.626Z,98597
2018-02-09T04:41:56.997Z,98600
2018-02-09T04:44:25.397Z,98598
2018-02-09T04:46:52.976Z,98594
2018-02-09T04:49:20.542Z,98597
2018-02-09T04:51:48.175Z,98590
2018-02-09T04:54:16.543Z,98588
2018-02-09T04:56:44.890Z,98590
2018-02-09T04:59:12.480Z,98598
2018-02-09T05:01:42.058Z,98600
2018-02-09T05:04:10.304Z,98587
2018-02-09T05:06:37.906Z,98589
2018-02-09T05:09:05.462Z,98584
2018-02-09T05:11:33.029Z,98583
2018-02-09T05:14:00.624Z,98585
2018-02-09T05:16:28.196Z,98587
2018-02-09T05:18:55.766Z,98586
2018-02-09T05:21:23.413Z,98590
2018-02-09T05:23:51.054Z,98583
2018-02-09T05:26:19.548Z,98591
2018-02-09T05:28:47.888Z,98597
2018-02-09T05:31:15.584Z,98595
2018-02-09T05:33:43.917Z,98602
2018-02-09T05:36:11.997Z,98593
2018-02-09T05:38:40.012Z,98598
2018-02-09T05:41:08.387Z,98609
2018-02-09T05:43:36.719Z,98610
2018-02-09T05:46:04.324Z,98593
2018-02-09T05:48:32.700Z,98597
2018-02-09T05:51:01.043Z,98594
2018-02-09T05:53:28.609Z,98598
2018-02-09T05:55:56.211Z,98593
2018-02-09T05:58:23.899Z,98597
2018-02-09T06:00:51.470Z,98602
2018-02-09T06:03:19.177Z,98606
2018-02-09T06:05:47.587Z,98598
2018-02-09T06:08:15.217Z,98590
2018-02-09T06:10:42.910Z,98588
2018-02-09T06:13:10.484Z,98587
2018-02-09T06:15:38.063Z,98597
2018-02-09T06:18:05.683Z,98596
2018-02-09T06:20:34.010Z,98603
2018-02-09T06:23:01.611Z,98578
2018-02-09T06:25:29.947Z,98588
2018-02-09T06:27:57.549Z,98586
2018-02-09T06:30:25.226Z,98598
2018-02-09T06:32:53.559Z,98597
2018-02-09T06:35:21.145Z,98595
2018-02-09T06:37:48.714Z,98594
2018-02-09T06:40:16.283Z,98586
2018-02-09T06:42:44.655Z,98595
2018-02-09T06:45:13.039Z,98594
2018-02-09T06:47:42.620Z,98594
2018-02-09T06:50:11.085Z,98600
2018-02-09T06:52:38.688Z,98594
2018-02-09T06:55:07.016Z,98598
2018-02-09T06:57:34.587Z,98591
2018-02-09T07:00:02.198Z,98601
2018-02-09T07:02:30.575Z,98601
2018-02-09T07:04:58.919Z,98601
2018-02-09T07:07:26.490Z,98594
2018-02-09T07:09:54.089Z,98595
2018-02-09T07:12:22.449Z,98594
2018-02-09T07:14:50.774Z,98590
2018-02-09T07:17:18.402Z,98589
2018-02-09T07:19:46.765Z,98576
2018-02-09T07:22:15.088Z,98582
2018-02-09T07:24:42.671Z,98576
2018-02-09T07:27:11.260Z,98574
2018-02-09T07:29:38.833Z,98572
2018-02-09T07:32:06.392Z,98574
2018-02-09T07:34:33.983Z,98568
2018-02-09T07:37:02.351Z,98581
2018-02-09T07:39:30.728Z,98555
2018-02-09T07:41:58.295Z,98576
2018-02-09T07:44:26.627Z,98574
2018-02-09T07:46:54.189Z,98570
2018-02-09T07:49:21.810Z,98559
2018-02-09T07:51:49.375Z,98569
2018-02-09T07:54:17.013Z,98566
2018-02-09T07:56:45.352Z,98564
2018-02-09T07:59:12.905Z,98573
2018-02-09T08:01:40.482Z,98565
2018-02-09T08:04:08.077Z,98566
2018-02-09T08:06:35.670Z,98554
2018-02-09T08:09:03.229Z,98560
2018-02-09T08:11:30.800Z,98552
2018-02-09T08:13:58.373Z,98559
2018-02-09T08:16:25.940Z,98559
2018-02-09T08:18:53.520Z,98548
2018-02-09T08:21:21.088Z,98538
2018-02-09T08:23:48.764Z,98542
2018-02-09T08:26:17.139Z,98542
2018-02-09T08:28:45.470Z,98538
2018-02-09T08:31:13.049Z,98538
2018-02-09T08:33:41.875Z,98544
2018-02-09T08:36:11.158Z,98542
2018-02-09T08:38:38.840Z,98530
2018-02-09T08:41:07.215Z,98543
2018-02-09T08:43:35.582Z,98540
2018-02-09T08:46:03.130Z,98538
2018-02-09T08:48:30.716Z,98536
2018-02-09T08:50:59.093Z,98538
2018-02-09T08:53:27.443Z,98539
2018-02-09T08:55:55.023Z,98530
2018-02-09T08:58:22.692Z,98546
2018-02-09T09:00:51.024Z,98545
2018-02-09T09:03:18.604Z,98530
2018-02-09T09:05:46.178Z,98520
2018-02-09T09:08:13.746Z,98524
2018-02-09T09:10:42.230Z,98530
2018-02-09T09:13:09.912Z,98526
2018-02-09T09:15:38.283Z,98527
2018-02-09T09:18:06.648Z,98531
2018-02-09T09:20:35.055Z,98527
2018-02-09T09:23:02.706Z,98525
2018-02-09T09:25:31.031Z,98525
2018-02-09T09:27:58.648Z,98517
2018-02-09T09:30:27.025Z,98520
2018-02-09T09:32:55.356Z,98523
2018-02-09T09:35:22.922Z,98522
2018-02-09T09:37:50.491Z,98514
2018-02-09T09:40:18.054Z,98513
2018-02-09T09:42:45.615Z,98517
2018-02-09T09:45:13.340Z,98517
2018-02-09T09:47:42.090Z,98517
2018-02-09T09:50:10.432Z,98516
2018-02-09T09:52:38.074Z,98514
2018-02-09T09:55:05.691Z,98530
2018-02-09T09:57:33.355Z,98510
2018-02-09T10:00:01.844Z,98521
2018-02-09T10:02:40.660Z,98517
2018-02-09T10:05:09.047Z,98508
2018-02-09T10:07:37.420Z,98520
2018-02-09T10:10:05.800Z,98526
2018-02-09T10:12:34.182Z,98504
2018-02-09T10:15:02.565Z,98505
2018-02-09T10:17:30.128Z,98509
2018-02-09T10:19:57.725Z,98510
2018-02-09T10:22:25.286Z,98514
2018-02-09T10:24:52.862Z,98498
2018-02-09T10:27:21.232Z,98493
2018-02-09T10:29:48.905Z,98501
2018-02-09T10:32:17.242Z,98498
2018-02-09T10:34:44.840Z,98496
2018-02-09T10:37:13.244Z,98492
2018-02-09T10:39:40.804Z,98492
2018-02-09T10:42:08.379Z,98498
2018-02-09T10:44:35.997Z,98499
2018-02-09T10:47:04.369Z,98486
2018-02-09T10:49:32.767Z,98487
2018-02-09T10:52:01.127Z,98480
2018-02-09T10:54:28.691Z,98477
2018-02-09T10:56:56.264Z,98479
2018-02-09T10:59:24.596Z,98476
2018-02-09T11:01:52.152Z,98485
2018-02-09T11:04:19.754Z,98484
2018-02-09T11:06:48.818Z,98477
2018-02-09T11:09:21.942Z,98470
2018-02-09T11:11:49.501Z,98469
2018-02-09T11:14:18.067Z,98466
2018-02-09T11:16:45.642Z,98463
2018-02-09T11:19:13.207Z,98462
2018-02-09T11:21:41.532Z,98462
2018-02-09T11:24:09.151Z,98454
2018-02-09T11:26:37.475Z,98444
2018-02-09T11:29:05.048Z,98436
2018-02-09T11:31:32.651Z,98442
2018-02-09T11:34:01.003Z,98441
2018-02-09T11:36:28.573Z,98431
2018-02-09T11:38:56.157Z,98444
2018-02-09T11:41:24.543Z,98430
2018-02-09T11:43:52.872Z,98431
2018-02-09T11:46:20.470Z,98428
2018-02-09T11:48:48.801Z,98427
2018-02-09T11:51:17.625Z,98422
2018-02-09T11:53:45.188Z,98466
2018-02-09T11:56:12.767Z,98421
2018-02-09T11:58:41.100Z,98413
2018-02-09T12:01:08.695Z,98411
2018-02-09T12:03:36.364Z,98407
2018-02-09T12:06:04.696Z,98416
2018-02-09T12:08:32.312Z,98413
2018-02-09T12:11:00.684Z,98413
2018-02-09T12:13:29.061Z,98399
2018-02-09T12:15:57.399Z,98389
2018-02-09T12:18:24.970Z,98390
2018-02-09T12:20:52.564Z,98394
2018-02-09T12:23:20.887Z,98391
2018-02-09T12:25:48.458Z,98391
2018-02-09T12:28:16.794Z,98380
2018-02-09T12:30:45.155Z,98378
2018-02-09T12:33:12.732Z,98370
2018-02-09T12:35:41.107Z,98369
2018-02-09T12:38:09.480Z,98365
2018-02-09T12:40:37.855Z,98363
2018-02-09T12:43:05.411Z,98364
2018-02-09T12:45:33.079Z,98362
2018-02-09T12:48:01.470Z,98352
2018-02-09T12:50:29.800Z,98350
2018-02-09T12:52:57.362Z,98349
2018-02-09T12:55:24.927Z,98339
2018-02-09T12:57:52.493Z,98351
2018-02-09T13:00:20.070Z,98342
2018-02-09T13:02:48.469Z,98339
2018-02-09T13:05:17.869Z,98347
2018-02-09T13:07:46.665Z,98341
2018-02-09T13:10:14.319Z,98345
2018-02-09T13:12:54.557Z,98335
2018-02-09T13:15:22.125Z,98338
2018-02-09T13:17:49.795Z,98333
2018-02-09T13:20:18.901Z,98332
2018-02-09T13:22:59.255Z,98334
2018-02-09T13:25:27.600Z,98330
2018-02-09T13:27:55.190Z,98326
2018-02-09T13:30:22.770Z,98328
2018-02-09T13:33:02.878Z,98326
2018-02-09T13:35:30.451Z,98320
2018-02-09T13:37:58.116Z,98319
2018-02-09T13:40:25.683Z,98315
2018-02-09T13:42:53.241Z,98313
2018-02-09T13:45:20.821Z,98319
2018-02-09T13:47:49.195Z,98312
2018-02-09T13:50:18.801Z,98320
2018-02-09T13:52:47.143Z,98307
2018-02-09T13:55:14.881Z,98310
2018-02-09T13:57:42.452Z,98314
2018-02-09T14:00:10.027Z,98311
2018-02-09T14:02:37.629Z,98323
2018-02-09T14:05:06.003Z,98318
2018-02-09T14:07:33.660Z,98310
2018-02-09T14:10:01.332Z,98309
2018-02-09T14:12:29.652Z,98312
2018-02-09T14:14:57.283Z,98301
2018-02-09T14:17:25.608Z,98301
2018-02-09T14:19:53.177Z,98288
2018-02-09T14:22:20.779Z,98307
2018-02-09T14:24:49.152Z,98296
2018-02-09T14:27:18.449Z,98300
2018-02-09T14:29:48.155Z,98300
2018-02-09T14:32:15.714Z,98303
2018-02-09T14:34:43.278Z,98298
2018-02-09T14:37:10.838Z,98301
2018-02-09T14:39:38.508Z,98295
2018-02-09T14:42:06.886Z,98294
2018-02-09T14:44:35.269Z,98288
2018-02-09T14:47:03.653Z,98286
2018-02-09T14:49:32.053Z,98297
2018-02-09T14:51:59.626Z,98273
2018-02-09T14:54:27.296Z,98289
2018-02-09T14:56:55.905Z,98292
2018-02-09T14:59:23.493Z,98288
2018-02-09T15:01:51.825Z,98283
2018-02-09T15:04:19.381Z,98289
2018-02-09T15:06:47.993Z,98289
2018-02-09T15:09:15.555Z,98292
2018-02-09T15:11:43.149Z,98297
2018-02-09T15:14:11.478Z,98297
2018-02-09T15:16:39.047Z,98298
2018-02-09T15:19:06.633Z,98286
2018-02-09T15:21:34.970Z,98286
2018-02-09T15:24:02.537Z,98294
2018-02-09T15:26:30.112Z,98289
2018-02-09T15:28:57.678Z,98288
2018-02-09T15:31:25.250Z,98283
2018-02-09T15:33:52.912Z,98285
2018-02-09T15:36:20.619Z,98289
2018-02-09T15:38:49.040Z,98288
2018-02-09T15:41:17.570Z,98281
2018-02-09T15:43:45.940Z,98284
2018-02-09T15:46:14.278Z,98267
2018-02-09T15:48:41.876Z,98275
2018-02-09T15:51:10.204Z,98273
2018-02-09T15:53:37.795Z,98278
2018-02-09T15:56:05.468Z,98268
2018-02-09T15:58:33.919Z,98268
2018-02-09T16:01:01.505Z,98270
2018-02-09T16:03:29.076Z,98278
2018-02-09T16:05:57.456Z,98283
2018-02-09T16:08:25.797Z,98275
2018-02-09T16:10:53.355Z,98270
2018-02-09T16:13:20.970Z,98282
2018-02-09T16:15:48.609Z,98288
2018-02-09T16:18:16.700Z,98279
2018-02-09T16:20:45.029Z,98281
2018-02-09T16:23:12.590Z,98283
2018-02-09T16:25:40.151Z,98279
2018-02-09T16:28:07.712Z,98266
2018-02-09T16:30:35.525Z,98273
2018-02-09T16:33:03.124Z,98270
2018-02-09T16:35:30.699Z,98274
2018-02-09T16:37:58.263Z,98286
2018-02-09T16:40:25.876Z,98271
2018-02-09T16:42:53.472Z,98280
2018-02-09T16:45:21.038Z,98265
2018-02-09T16:47:48.601Z,98284
2018-02-09T16:50:16.725Z,98268
2018-02-09T16:52:45.047Z,98269
2018-02-09T16:55:12.607Z,98269
2018-02-09T16:57:40.174Z,98284
2018-02-09T17:00:07.788Z,98283
2018-02-09T17:02:36.125Z,98265
2018-02-09T17:05:03.696Z,98288
2018-02-09T17:07:31.254Z,98287
2018-02-09T17:09:58.820Z,98286
2018-02-09T17:12:26.388Z,98287
2018-02-09T17:14:54.721Z,98291
2018-02-09T17:17:22.343Z,98292
2018-02-09T17:19:50.685Z,98288
2018-02-09T17:22:18.257Z,98294
2018-02-09T17:24:45.821Z,98296
2018-02-09T17:27:13.500Z,98301
2018-02-09T17:29:41.839Z,98297
2018-02-09T17:32:09.444Z,98298
2018-02-09T17:34:37.784Z,98303
2018-02-09T17:37:05.377Z,98300
2018-02-09T17:39:33.723Z,98305
2018-02-09T17:42:01.334Z,98306
2018-02-09T17:44:28.940Z,98312
2018-02-09T17:46:56.535Z,98298
2018-02-09T17:49:24.255Z,98307
2018-02-09T17:51:51.906Z,98303
2018-02-09T17:54:19.641Z,98310
2018-02-09T17:56:47.227Z,98298
2018-02-09T17:59:14.868Z,98311
2018-02-09T18:01:42.430Z,98303
2018-02-09T18:04:10.089Z,98306
2018-02-09T18:06:37.671Z,98308
2018-02-09T18:09:05.295Z,98316
2018-02-09T18:11:33.640Z,98311
2018-02-09T18:14:01.213Z,98305
2018-02-09T18:16:28.783Z,98331
2018-02-09T18:18:56.411Z,98315
2018-02-09T18:21:23.975Z,98318
2018-02-09T18:23:51.541Z,98317
2018-02-09T18:26:19.105Z,98310
2018-02-09T18:28:46.788Z,98311
2018-02-09T18:31:14.358Z,98309
2018-02-09T18:33:42.033Z,98319
2018-02-09T18:36:10.404Z,98315
2018-02-09T18:38:38.749Z,98314
2018-02-09T18:41:06.328Z,98327
2018-02-09T18:43:34.012Z,98320
2018-02-09T18:46:02.339Z,98312
2018-02-09T18:48:29.955Z,98313
2018-02-09T18:50:58.298Z,98327
2018-02-09T18:53:25.884Z,98319
2018-02-09T18:55:54.300Z,98317
2018-02-09T18:58:21.874Z,98325
2018-02-09T19:00:49.463Z,98324
2018-02-09T19:03:18.002Z,98327
2018-02-09T19:05:45.574Z,98327
2018-02-09T19:08:13.168Z,98325
2018-02-09T19:10:40.743Z,98323
2018-02-09T19:13:08.437Z,98332
2018-02-09T19:15:36.078Z,98364
2018-02-09T19:18:04.432Z,98339
2018-02-09T19:20:32.153Z,98340
2018-02-09T19:22:59.804Z,98339
2018-02-09T19:25:27.451Z,98330
2018-02-09T19:27:55.825Z,98333
2018-02-09T19:30:23.496Z,98341
2018-02-09T19:32:51.872Z,98341
2018-02-09T19:35:20.217Z,98335
2018-02-09T19:37:48.436Z,98355
2018-02-09T19:40:17.814Z,98350
2018-02-09T19:42:45.488Z,98354
2018-02-09T19:45:13.883Z,98350
2018-02-09T19:47:42.212Z,98357
2018-02-09T19:50:09.775Z,98359
2018-02-09T19:52:37.344Z,98355
2018-02-09T19:55:04.905Z,98360
2018-02-09T19:57:33.742Z,98369
2018-02-09T20:00:02.441Z,98358
2018-02-09T20:02:30.070Z,98362
2018-02-09T20:04:58.566Z,98364
2018-02-09T20:07:26.899Z,98367
2018-02-09T20:09:54.502Z,98371
2018-02-09T20:12:22.839Z,98362
2018-02-09T20:14:50.436Z,98374
2018-02-09T20:17:18.770Z,98378
2018-02-09T20:19:47.620Z,98366
2018-02-09T20:22:15.199Z,98365
2018-02-09T20:24:42.761Z,98362
2018-02-09T20:27:10.659Z,98366
2018-02-09T20:29:38.244Z,98365
2018-02-09T20:32:06.135Z,98364
2018-02-09T20:34:33.972Z,98368
2018-02-09T20:37:01.543Z,98367
2018-02-09T20:39:29.940Z,98364
2018-02-09T20:41:58.316Z,98362
2018-02-09T20:44:26.738Z,98361
2018-02-09T20:46:54.384Z,98358
2018-02-09T20:49:22.129Z,98358
2018-02-09T20:51:49.701Z,98362
2018-02-09T20:54:17.334Z,98358
2018-02-09T20:56:45.732Z,98358
2018-02-09T20:59:13.317Z,98364
2018-02-09T21:01:40.955Z,98358
2018-02-09T21:04:08.685Z,98358
2018-02-09T21:06:36.849Z,98384
2018-02-09T21:09:04.439Z,98367
2018-02-09T21:11:32.768Z,98347
2018-02-09T21:14:00.335Z,98355
2018-02-09T21:16:27.946Z,98361
2018-02-09T21:18:56.361Z,98366
2018-02-09T21:21:23.944Z,98356
2018-02-09T21:23:51.563Z,98356
2018-02-09T21:26:19.348Z,98354
2018-02-09T21:28:47.878Z,98353
2018-02-09T21:31:15.446Z,98362
2018-02-09T21:33:43.863Z,98357
2018-02-09T21:36:11.551Z,98355
2018-02-09T21:38:39.974Z,98349
2018-02-09T21:41:07.630Z,98348
2018-02-09T21:43:35.297Z,98348
2018-02-09T21:46:03.668Z,98351
2018-02-09T21:48:31.248Z,98342
2018-02-09T21:50:59.614Z,98337
2018-02-09T21:53:27.948Z,98347
2018-02-09T21:55:55.569Z,98332
2018-02-09T21:58:23.907Z,98345
2018-02-09T22:00:51.573Z,98342
2018-02-09T22:03:19.978Z,98343
2018-02-09T22:05:48.631Z,98346
2018-02-09T22:08:16.753Z,98342
2018-02-09T22:11:12.495Z,98339
2018-02-09T22:13:40.069Z,98345
2018-02-09T22:16:07.632Z,98335
2018-02-09T22:18:35.204Z,98348
2018-02-09T22:21:03.602Z,98333
2018-02-09T22:23:31.209Z,98338
2018-02-09T22:25:59.052Z,98336
2018-02-09T22:28:27.427Z,98344
2018-02-09T22:30:55.786Z,98341
2018-02-09T22:33:24.118Z,98337
2018-02-09T22:35:51.679Z,98333
2018-02-09T22:38:19.239Z,98328
2018-02-09T22:40:47.481Z,98335
2018-02-09T22:43:15.816Z,98331
2018-02-09T22:45:43.418Z,98330
2018-02-09T22:48:10.989Z,98330
2018-02-09T22:50:39.315Z,98327
2018-02-09T22:53:06.884Z,98325
2018-02-09T22:55:34.450Z,98326
2018-02-09T22:58:02.042Z,98327
2018-02-09T23:00:30.436Z,98328
2018-02-09T23:02:58.796Z,98322
2018-02-09T23:05:27.132Z,98335
2018-02-09T23:07:54.760Z,98337
2018-02-09T23:10:23.088Z,98331
2018-02-09T23:12:50.658Z,98335
2018-02-09T23:15:19.571Z,98335
2018-02-09T23:17:49.083Z,98339
2018-02-09T23:20:18.677Z,98335
2018-02-09T23:22:49.116Z,98341
2018-02-09T23:25:18.222Z,98338
2018-02-09T23:27:47.813Z,98344
2018-02-09T23:30:19.367Z,98339
2018-02-09T23:32:48.427Z,98341
2018-02-09T23:35:16.764Z,98349
2018-02-09T23:37:45.104Z,98339
2018-02-09T23:40:12.667Z,98348
2018-02-09T23:42:40.219Z,98340
2018-02-09T23:45:08.725Z,98346
2018-02-09T23:47:36.380Z,98353
2018-02-09T23:50:03.947Z,98354
2018-02-09T23:52:31.605Z,98349
2018-02-09T23:54:59.279Z,98354
2018-02-09T23:57:27.615Z,98348
2018-02-09T23:59:55.213Z,98353
